sensor_id;sensor_type;location;lat;lon;timestamp;P1;durP1;ratioP1;P2;durP2;ratioP2
27209;SDS011;14721;42.668;23.386;2022-08-16T00:00:57;7.68;;;5.25;;
27209;SDS011;14721;42.668;23.386;2022-08-16T00:03:24;15.90;;;5.28;;
27209;SDS011;14721;42.668;23.386;2022-08-16T00:05:50;10.23;;;5.85;;
27209;SDS011;14721;42.668;23.386;2022-08-16T00:08:16;7.80;;;5.20;;
27209;SDS011;14721;42.668;23.386;2022-08-16T00:10:43;10.23;;;5.68;;
27209;SDS011;14721;42.668;23.386;2022-08-16T00:13:09;9.07;;;5.10;;
27209;SDS011;14721;42.668;23.386;2022-08-16T00:15:40;7.65;;;4.68;;
27209;SDS011;14721;42.668;23.386;2022-08-16T00:18:08;9.27;;;5.53;;
27209;SDS011;14721;42.668;23.386;2022-08-16T00:20:37;8.93;;;5.25;;
27209;SDS011;14721;42.668;23.386;2022-08-16T00:23:05;8.93;;;5.20;;
27209;SDS011;14721;42.668;23.386;2022-08-16T00:25:32;7.72;;;5.22;;
27209;SDS011;14721;42.668;23.386;2022-08-16T00:27:58;12.45;;;6.50;;
27209;SDS011;14721;42.668;23.386;2022-08-16T00:30:24;10.73;;;5.53;;
27209;SDS011;14721;42.668;23.386;2022-08-16T00:32:51;10.15;;;5.50;;
27209;SDS011;14721;42.668;23.386;2022-08-16T00:35:20;7.93;;;5.20;;
27209;SDS011;14721;42.668;23.386;2022-08-16T00:37:52;9.07;;;5.32;;
27209;SDS011;14721;42.668;23.386;2022-08-16T00:40:21;9.77;;;5.68;;
27209;SDS011;14721;42.668;23.386;2022-08-16T00:42:52;8.68;;;5.05;;
27209;SDS011;14721;42.668;23.386;2022-08-16T00:45:34;9.88;;;5.68;;
27209;SDS011;14721;42.668;23.386;2022-08-16T00:48:21;11.88;;;5.80;;
27209;SDS011;14721;42.668;23.386;2022-08-16T00:50:46;11.45;;;6.38;;
27209;SDS011;14721;42.668;23.386;2022-08-16T00:53:15;8.90;;;6.35;;
27209;SDS011;14721;42.668;23.386;2022-08-16T00:55:48;8.38;;;6.10;;
27209;SDS011;14721;42.668;23.386;2022-08-16T00:58:18;9.88;;;5.38;;
27209;SDS011;14721;42.668;23.386;2022-08-16T01:00:49;9.65;;;6.18;;
27209;SDS011;14721;42.668;23.386;2022-08-16T01:03:18;8.48;;;5.63;;
27209;SDS011;14721;42.668;23.386;2022-08-16T01:05:45;10.15;;;6.15;;
27209;SDS011;14721;42.668;23.386;2022-08-16T01:08:14;10.10;;;6.07;;
27209;SDS011;14721;42.668;23.386;2022-08-16T01:10:43;9.50;;;5.88;;
27209;SDS011;14721;42.668;23.386;2022-08-16T01:13:10;10.60;;;5.72;;
27209;SDS011;14721;42.668;23.386;2022-08-16T01:15:51;11.88;;;6.13;;
27209;SDS011;14721;42.668;23.386;2022-08-16T01:18:38;7.97;;;5.60;;
27209;SDS011;14721;42.668;23.386;2022-08-16T01:21:24;12.10;;;5.88;;
27209;SDS011;14721;42.668;23.386;2022-08-16T01:26:47;9.18;;;5.55;;
27209;SDS011;14721;42.668;23.386;2022-08-16T01:29:23;9.40;;;5.72;;
27209;SDS011;14721;42.668;23.386;2022-08-16T01:31:53;9.77;;;5.47;;
27209;SDS011;14721;42.668;23.386;2022-08-16T01:34:20;10.13;;;6.22;;
27209;SDS011;14721;42.668;23.386;2022-08-16T01:36:46;10.15;;;5.85;;
27209;SDS011;14721;42.668;23.386;2022-08-16T01:39:15;9.75;;;5.53;;
27209;SDS011;14721;42.668;23.386;2022-08-16T01:41:42;9.40;;;5.78;;
27209;SDS011;14721;42.668;23.386;2022-08-16T01:44:10;11.73;;;6.05;;
27209;SDS011;14721;42.668;23.386;2022-08-16T01:46:37;12.32;;;5.75;;
27209;SDS011;14721;42.668;23.386;2022-08-16T01:49:11;8.80;;;5.82;;
27209;SDS011;14721;42.668;23.386;2022-08-16T01:51:44;9.32;;;6.03;;
27209;SDS011;14721;42.668;23.386;2022-08-16T01:54:12;11.35;;;6.15;;
27209;SDS011;14721;42.668;23.386;2022-08-16T01:56:39;9.27;;;5.70;;
27209;SDS011;14721;42.668;23.386;2022-08-16T01:59:06;8.93;;;5.47;;
27209;SDS011;14721;42.668;23.386;2022-08-16T02:01:35;12.85;;;7.03;;
27209;SDS011;14721;42.668;23.386;2022-08-16T02:04:02;11.25;;;5.82;;
27209;SDS011;14721;42.668;23.386;2022-08-16T02:06:28;10.65;;;6.80;;
27209;SDS011;14721;42.668;23.386;2022-08-16T02:08:54;10.45;;;6.03;;
27209;SDS011;14721;42.668;23.386;2022-08-16T02:11:21;9.68;;;6.45;;
27209;SDS011;14721;42.668;23.386;2022-08-16T02:13:49;10.38;;;6.30;;
27209;SDS011;14721;42.668;23.386;2022-08-16T02:16:15;9.88;;;6.55;;
27209;SDS011;14721;42.668;23.386;2022-08-16T02:18:43;14.50;;;6.95;;
27209;SDS011;14721;42.668;23.386;2022-08-16T02:21:10;14.73;;;6.63;;
27209;SDS011;14721;42.668;23.386;2022-08-16T02:23:37;11.27;;;6.50;;
27209;SDS011;14721;42.668;23.386;2022-08-16T02:26:05;19.15;;;7.07;;
27209;SDS011;14721;42.668;23.386;2022-08-16T02:28:31;12.02;;;7.10;;
27209;SDS011;14721;42.668;23.386;2022-08-16T02:30:58;13.00;;;6.45;;
27209;SDS011;14721;42.668;23.386;2022-08-16T02:33:29;13.88;;;7.68;;
27209;SDS011;14721;42.668;23.386;2022-08-16T02:35:54;12.55;;;6.65;;
27209;SDS011;14721;42.668;23.386;2022-08-16T02:38:22;11.05;;;6.40;;
27209;SDS011;14721;42.668;23.386;2022-08-16T02:43:19;11.23;;;6.97;;
27209;SDS011;14721;42.668;23.386;2022-08-16T02:45:45;10.45;;;6.25;;
27209;SDS011;14721;42.668;23.386;2022-08-16T02:48:10;11.98;;;6.10;;
27209;SDS011;14721;42.668;23.386;2022-08-16T02:50:36;11.90;;;7.05;;
27209;SDS011;14721;42.668;23.386;2022-08-16T02:53:03;11.73;;;6.97;;
27209;SDS011;14721;42.668;23.386;2022-08-16T02:55:35;11.57;;;6.30;;
27209;SDS011;14721;42.668;23.386;2022-08-16T02:58:01;15.85;;;7.45;;
27209;SDS011;14721;42.668;23.386;2022-08-16T03:00:27;16.35;;;7.70;;
27209;SDS011;14721;42.668;23.386;2022-08-16T03:02:55;12.68;;;7.25;;
27209;SDS011;14721;42.668;23.386;2022-08-16T03:05:21;12.70;;;8.13;;
27209;SDS011;14721;42.668;23.386;2022-08-16T03:07:51;14.63;;;8.80;;
27209;SDS011;14721;42.668;23.386;2022-08-16T03:10:17;14.52;;;7.45;;
27209;SDS011;14721;42.668;23.386;2022-08-16T03:12:43;17.00;;;7.80;;
27209;SDS011;14721;42.668;23.386;2022-08-16T03:15:12;13.48;;;7.63;;
27209;SDS011;14721;42.668;23.386;2022-08-16T03:17:38;12.95;;;8.20;;
27209;SDS011;14721;42.668;23.386;2022-08-16T03:20:07;14.95;;;8.48;;
27209;SDS011;14721;42.668;23.386;2022-08-16T03:22:35;11.63;;;8.32;;
27209;SDS011;14721;42.668;23.386;2022-08-16T03:25:03;15.10;;;8.98;;
27209;SDS011;14721;42.668;23.386;2022-08-16T03:27:33;14.60;;;7.88;;
27209;SDS011;14721;42.668;23.386;2022-08-16T03:30:00;12.05;;;8.00;;
27209;SDS011;14721;42.668;23.386;2022-08-16T03:32:29;14.70;;;8.57;;
27209;SDS011;14721;42.668;23.386;2022-08-16T03:34:55;13.43;;;7.60;;
27209;SDS011;14721;42.668;23.386;2022-08-16T03:37:21;14.27;;;8.82;;
27209;SDS011;14721;42.668;23.386;2022-08-16T03:39:46;15.18;;;8.32;;
27209;SDS011;14721;42.668;23.386;2022-08-16T03:42:12;13.07;;;8.05;;
27209;SDS011;14721;42.668;23.386;2022-08-16T03:44:38;18.88;;;8.15;;
27209;SDS011;14721;42.668;23.386;2022-08-16T03:47:05;15.80;;;8.82;;
27209;SDS011;14721;42.668;23.386;2022-08-16T03:49:31;16.35;;;9.55;;
27209;SDS011;14721;42.668;23.386;2022-08-16T03:51:58;13.32;;;8.38;;
27209;SDS011;14721;42.668;23.386;2022-08-16T03:54:25;14.82;;;8.45;;
27209;SDS011;14721;42.668;23.386;2022-08-16T03:56:51;14.38;;;8.80;;
27209;SDS011;14721;42.668;23.386;2022-08-16T03:59:17;12.38;;;7.60;;
27209;SDS011;14721;42.668;23.386;2022-08-16T04:01:42;17.13;;;9.15;;
27209;SDS011;14721;42.668;23.386;2022-08-16T04:04:10;14.82;;;8.38;;
27209;SDS011;14721;42.668;23.386;2022-08-16T04:06:35;13.57;;;8.05;;
27209;SDS011;14721;42.668;23.386;2022-08-16T04:09:04;13.57;;;8.43;;
27209;SDS011;14721;42.668;23.386;2022-08-16T04:11:29;16.20;;;8.70;;
27209;SDS011;14721;42.668;23.386;2022-08-16T04:13:56;15.38;;;8.63;;
27209;SDS011;14721;42.668;23.386;2022-08-16T04:16:21;16.30;;;8.30;;
27209;SDS011;14721;42.668;23.386;2022-08-16T04:18:47;14.30;;;8.57;;
27209;SDS011;14721;42.668;23.386;2022-08-16T04:21:14;16.40;;;7.90;;
27209;SDS011;14721;42.668;23.386;2022-08-16T04:23:40;13.07;;;8.40;;
27209;SDS011;14721;42.668;23.386;2022-08-16T04:26:07;17.75;;;8.70;;
27209;SDS011;14721;42.668;23.386;2022-08-16T04:28:32;15.55;;;9.80;;
27209;SDS011;14721;42.668;23.386;2022-08-16T04:30:58;15.25;;;8.57;;
27209;SDS011;14721;42.668;23.386;2022-08-16T04:33:27;15.50;;;8.85;;
27209;SDS011;14721;42.668;23.386;2022-08-16T04:35:53;22.48;;;10.23;;
27209;SDS011;14721;42.668;23.386;2022-08-16T04:38:21;14.65;;;8.35;;
27209;SDS011;14721;42.668;23.386;2022-08-16T04:40:48;17.83;;;8.82;;
27209;SDS011;14721;42.668;23.386;2022-08-16T04:43:13;14.60;;;9.07;;
27209;SDS011;14721;42.668;23.386;2022-08-16T04:45:40;11.57;;;7.30;;
27209;SDS011;14721;42.668;23.386;2022-08-16T04:48:08;15.70;;;8.60;;
27209;SDS011;14721;42.668;23.386;2022-08-16T04:50:34;15.15;;;7.95;;
27209;SDS011;14721;42.668;23.386;2022-08-16T04:53:00;14.50;;;8.68;;
27209;SDS011;14721;42.668;23.386;2022-08-16T04:55:27;14.35;;;9.05;;
27209;SDS011;14721;42.668;23.386;2022-08-16T04:57:55;17.65;;;8.32;;
27209;SDS011;14721;42.668;23.386;2022-08-16T05:00:25;12.65;;;8.32;;
27209;SDS011;14721;42.668;23.386;2022-08-16T05:02:59;15.65;;;8.68;;
27209;SDS011;14721;42.668;23.386;2022-08-16T05:05:34;11.52;;;7.38;;
27209;SDS011;14721;42.668;23.386;2022-08-16T05:08:01;14.32;;;8.05;;
27209;SDS011;14721;42.668;23.386;2022-08-16T05:10:28;12.70;;;7.40;;
27209;SDS011;14721;42.668;23.386;2022-08-16T05:12:57;12.55;;;7.47;;
27209;SDS011;14721;42.668;23.386;2022-08-16T05:15:25;10.57;;;7.38;;
27209;SDS011;14721;42.668;23.386;2022-08-16T05:17:51;9.88;;;7.10;;
27209;SDS011;14721;42.668;23.386;2022-08-16T05:20:20;11.30;;;6.90;;
27209;SDS011;14721;42.668;23.386;2022-08-16T05:22:46;11.13;;;7.85;;
27209;SDS011;14721;42.668;23.386;2022-08-16T05:25:13;11.27;;;6.57;;
27209;SDS011;14721;42.668;23.386;2022-08-16T05:27:40;12.90;;;7.47;;
27209;SDS011;14721;42.668;23.386;2022-08-16T05:30:08;16.27;;;8.10;;
27209;SDS011;14721;42.668;23.386;2022-08-16T05:32:37;16.02;;;8.27;;
27209;SDS011;14721;42.668;23.386;2022-08-16T05:35:10;13.27;;;7.88;;
27209;SDS011;14721;42.668;23.386;2022-08-16T05:37:37;16.73;;;8.52;;
27209;SDS011;14721;42.668;23.386;2022-08-16T05:40:05;13.23;;;7.97;;
27209;SDS011;14721;42.668;23.386;2022-08-16T05:42:33;12.55;;;7.28;;
27209;SDS011;14721;42.668;23.386;2022-08-16T05:45:00;10.73;;;7.72;;
27209;SDS011;14721;42.668;23.386;2022-08-16T05:47:26;11.57;;;8.10;;
27209;SDS011;14721;42.668;23.386;2022-08-16T05:49:53;14.10;;;8.60;;
27209;SDS011;14721;42.668;23.386;2022-08-16T05:52:21;11.02;;;8.10;;
27209;SDS011;14721;42.668;23.386;2022-08-16T05:54:48;13.57;;;7.47;;
27209;SDS011;14721;42.668;23.386;2022-08-16T05:57:15;13.27;;;7.93;;
27209;SDS011;14721;42.668;23.386;2022-08-16T05:59:43;14.73;;;8.35;;
27209;SDS011;14721;42.668;23.386;2022-08-16T06:02:12;11.55;;;8.38;;
27209;SDS011;14721;42.668;23.386;2022-08-16T06:04:40;13.35;;;7.90;;
27209;SDS011;14721;42.668;23.386;2022-08-16T06:07:06;12.30;;;8.45;;
27209;SDS011;14721;42.668;23.386;2022-08-16T06:09:32;13.20;;;8.65;;
27209;SDS011;14721;42.668;23.386;2022-08-16T06:11:58;11.18;;;7.78;;
27209;SDS011;14721;42.668;23.386;2022-08-16T06:14:29;13.65;;;8.93;;
27209;SDS011;14721;42.668;23.386;2022-08-16T06:16:54;13.10;;;8.77;;
27209;SDS011;14721;42.668;23.386;2022-08-16T06:19:22;13.20;;;8.43;;
27209;SDS011;14721;42.668;23.386;2022-08-16T06:21:48;15.90;;;7.82;;
27209;SDS011;14721;42.668;23.386;2022-08-16T06:24:14;13.13;;;8.30;;
27209;SDS011;14721;42.668;23.386;2022-08-16T06:26:40;14.32;;;8.88;;
27209;SDS011;14721;42.668;23.386;2022-08-16T06:29:06;13.75;;;7.82;;
27209;SDS011;14721;42.668;23.386;2022-08-16T06:31:31;12.30;;;7.97;;
27209;SDS011;14721;42.668;23.386;2022-08-16T06:33:57;11.30;;;7.85;;
27209;SDS011;14721;42.668;23.386;2022-08-16T06:36:23;11.45;;;7.68;;
27209;SDS011;14721;42.668;23.386;2022-08-16T06:38:50;12.68;;;7.32;;
27209;SDS011;14721;42.668;23.386;2022-08-16T06:41:16;12.98;;;7.97;;
27209;SDS011;14721;42.668;23.386;2022-08-16T06:43:42;17.25;;;8.88;;
27209;SDS011;14721;42.668;23.386;2022-08-16T06:46:20;18.30;;;9.82;;
27209;SDS011;14721;42.668;23.386;2022-08-16T06:49:02;12.20;;;8.00;;
27209;SDS011;14721;42.668;23.386;2022-08-16T06:51:29;12.27;;;7.28;;
27209;SDS011;14721;42.668;23.386;2022-08-16T06:53:55;12.60;;;8.32;;
27209;SDS011;14721;42.668;23.386;2022-08-16T06:56:21;14.20;;;9.15;;
27209;SDS011;14721;42.668;23.386;2022-08-16T06:58:47;14.32;;;8.85;;
27209;SDS011;14721;42.668;23.386;2022-08-16T07:01:12;12.93;;;8.73;;
27209;SDS011;14721;42.668;23.386;2022-08-16T07:03:39;17.83;;;9.18;;
27209;SDS011;14721;42.668;23.386;2022-08-16T07:06:06;26.67;;;10.35;;
27209;SDS011;14721;42.668;23.386;2022-08-16T07:08:32;22.85;;;9.63;;
27209;SDS011;14721;42.668;23.386;2022-08-16T07:13:26;13.63;;;8.02;;
27209;SDS011;14721;42.668;23.386;2022-08-16T07:15:54;12.05;;;8.23;;
27209;SDS011;14721;42.668;23.386;2022-08-16T07:18:20;12.48;;;8.50;;
27209;SDS011;14721;42.668;23.386;2022-08-16T07:20:47;11.27;;;7.10;;
27209;SDS011;14721;42.668;23.386;2022-08-16T07:23:15;10.05;;;6.93;;
27209;SDS011;14721;42.668;23.386;2022-08-16T07:25:41;11.82;;;7.20;;
27209;SDS011;14721;42.668;23.386;2022-08-16T07:28:07;10.60;;;7.07;;
27209;SDS011;14721;42.668;23.386;2022-08-16T07:30:35;12.75;;;6.55;;
27209;SDS011;14721;42.668;23.386;2022-08-16T07:33:04;15.82;;;7.70;;
27209;SDS011;14721;42.668;23.386;2022-08-16T07:35:31;11.38;;;8.13;;
27209;SDS011;14721;42.668;23.386;2022-08-16T07:37:57;10.88;;;7.38;;
27209;SDS011;14721;42.668;23.386;2022-08-16T07:40:23;12.02;;;6.80;;
27209;SDS011;14721;42.668;23.386;2022-08-16T07:42:51;18.02;;;8.23;;
27209;SDS011;14721;42.668;23.386;2022-08-16T07:45:17;10.13;;;6.97;;
27209;SDS011;14721;42.668;23.386;2022-08-16T07:47:43;12.93;;;7.15;;
27209;SDS011;14721;42.668;23.386;2022-08-16T07:50:12;12.70;;;7.72;;
27209;SDS011;14721;42.668;23.386;2022-08-16T07:52:39;11.68;;;7.32;;
27209;SDS011;14721;42.668;23.386;2022-08-16T07:55:12;13.02;;;7.28;;
27209;SDS011;14721;42.668;23.386;2022-08-16T07:57:41;11.48;;;7.20;;
27209;SDS011;14721;42.668;23.386;2022-08-16T08:00:08;9.65;;;6.75;;
27209;SDS011;14721;42.668;23.386;2022-08-16T08:02:34;11.57;;;7.63;;
27209;SDS011;14721;42.668;23.386;2022-08-16T08:05:07;10.32;;;7.43;;
27209;SDS011;14721;42.668;23.386;2022-08-16T08:07:34;13.88;;;6.85;;
27209;SDS011;14721;42.668;23.386;2022-08-16T08:10:02;8.68;;;6.63;;
27209;SDS011;14721;42.668;23.386;2022-08-16T08:12:29;10.02;;;7.72;;
27209;SDS011;14721;42.668;23.386;2022-08-16T08:15:00;11.80;;;6.85;;
27209;SDS011;14721;42.668;23.386;2022-08-16T08:17:34;11.10;;;7.43;;
27209;SDS011;14721;42.668;23.386;2022-08-16T08:22:52;10.60;;;7.72;;
27209;SDS011;14721;42.668;23.386;2022-08-16T08:25:20;12.77;;;7.00;;
27209;SDS011;14721;42.668;23.386;2022-08-16T08:27:46;9.38;;;6.90;;
27209;SDS011;14721;42.668;23.386;2022-08-16T08:30:12;10.07;;;7.60;;
27209;SDS011;14721;42.668;23.386;2022-08-16T08:32:39;9.73;;;7.20;;
27209;SDS011;14721;42.668;23.386;2022-08-16T08:35:05;12.55;;;7.30;;
27209;SDS011;14721;42.668;23.386;2022-08-16T08:37:32;12.40;;;7.05;;
27209;SDS011;14721;42.668;23.386;2022-08-16T08:40:00;7.82;;;6.50;;
27209;SDS011;14721;42.668;23.386;2022-08-16T08:42:28;15.45;;;7.13;;
27209;SDS011;14721;42.668;23.386;2022-08-16T08:44:54;9.65;;;6.72;;
27209;SDS011;14721;42.668;23.386;2022-08-16T08:47:20;8.70;;;6.03;;
27209;SDS011;14721;42.668;23.386;2022-08-16T08:49:47;11.55;;;6.53;;
27209;SDS011;14721;42.668;23.386;2022-08-16T08:52:14;8.32;;;6.30;;
27209;SDS011;14721;42.668;23.386;2022-08-16T08:54:47;7.70;;;5.43;;
27209;SDS011;14721;42.668;23.386;2022-08-16T08:57:12;8.30;;;6.47;;
27209;SDS011;14721;42.668;23.386;2022-08-16T08:59:40;8.10;;;5.65;;
27209;SDS011;14721;42.668;23.386;2022-08-16T09:02:06;7.18;;;5.35;;
27209;SDS011;14721;42.668;23.386;2022-08-16T09:04:33;6.25;;;4.90;;
27209;SDS011;14721;42.668;23.386;2022-08-16T09:07:00;6.93;;;4.78;;
27209;SDS011;14721;42.668;23.386;2022-08-16T09:09:29;6.80;;;5.07;;
27209;SDS011;14721;42.668;23.386;2022-08-16T09:11:56;8.18;;;5.43;;
27209;SDS011;14721;42.668;23.386;2022-08-16T09:14:22;7.75;;;5.18;;
27209;SDS011;14721;42.668;23.386;2022-08-16T09:16:48;7.45;;;4.60;;
27209;SDS011;14721;42.668;23.386;2022-08-16T09:19:15;5.07;;;3.70;;
27209;SDS011;14721;42.668;23.386;2022-08-16T09:21:42;6.25;;;3.85;;
27209;SDS011;14721;42.668;23.386;2022-08-16T09:24:08;6.00;;;4.43;;
27209;SDS011;14721;42.668;23.386;2022-08-16T09:26:34;7.75;;;3.80;;
27209;SDS011;14721;42.668;23.386;2022-08-16T09:29:01;8.13;;;4.65;;
27209;SDS011;14721;42.668;23.386;2022-08-16T09:31:28;4.53;;;3.40;;
27209;SDS011;14721;42.668;23.386;2022-08-16T09:33:53;7.28;;;4.00;;
27209;SDS011;14721;42.668;23.386;2022-08-16T09:36:25;7.60;;;4.18;;
27209;SDS011;14721;42.668;23.386;2022-08-16T09:38:58;5.68;;;3.70;;
27209;SDS011;14721;42.668;23.386;2022-08-16T09:41:24;5.47;;;3.45;;
27209;SDS011;14721;42.668;23.386;2022-08-16T09:43:50;8.55;;;4.75;;
27209;SDS011;14721;42.668;23.386;2022-08-16T09:46:16;6.72;;;4.20;;
27209;SDS011;14721;42.668;23.386;2022-08-16T09:48:42;6.03;;;4.10;;
27209;SDS011;14721;42.668;23.386;2022-08-16T09:51:08;5.60;;;4.38;;
27209;SDS011;14721;42.668;23.386;2022-08-16T09:53:36;6.78;;;4.30;;
27209;SDS011;14721;42.668;23.386;2022-08-16T09:56:04;6.50;;;4.22;;
27209;SDS011;14721;42.668;23.386;2022-08-16T09:58:41;5.82;;;4.13;;
27209;SDS011;14721;42.668;23.386;2022-08-16T10:01:07;6.68;;;4.80;;
27209;SDS011;14721;42.668;23.386;2022-08-16T10:03:34;4.82;;;3.63;;
27209;SDS011;14721;42.668;23.386;2022-08-16T10:06:04;5.60;;;4.35;;
27209;SDS011;14721;42.668;23.386;2022-08-16T10:08:31;5.72;;;4.03;;
27209;SDS011;14721;42.668;23.386;2022-08-16T10:10:58;4.80;;;3.80;;
27209;SDS011;14721;42.668;23.386;2022-08-16T10:13:43;6.43;;;4.65;;
27209;SDS011;14721;42.668;23.386;2022-08-16T10:16:10;6.85;;;3.67;;
27209;SDS011;14721;42.668;23.386;2022-08-16T10:18:38;6.35;;;4.68;;
27209;SDS011;14721;42.668;23.386;2022-08-16T10:21:09;5.68;;;3.75;;
27209;SDS011;14721;42.668;23.386;2022-08-16T10:23:35;5.05;;;3.80;;
27209;SDS011;14721;42.668;23.386;2022-08-16T10:26:01;5.82;;;4.63;;
27209;SDS011;14721;42.668;23.386;2022-08-16T10:28:27;9.75;;;6.22;;
27209;SDS011;14721;42.668;23.386;2022-08-16T10:30:54;5.22;;;3.72;;
27209;SDS011;14721;42.668;23.386;2022-08-16T10:33:20;6.38;;;3.65;;
27209;SDS011;14721;42.668;23.386;2022-08-16T10:35:46;4.80;;;3.60;;
27209;SDS011;14721;42.668;23.386;2022-08-16T10:38:12;5.93;;;4.05;;
27209;SDS011;14721;42.668;23.386;2022-08-16T10:40:41;5.25;;;3.88;;
27209;SDS011;14721;42.668;23.386;2022-08-16T10:43:06;7.43;;;4.38;;
27209;SDS011;14721;42.668;23.386;2022-08-16T10:45:33;5.95;;;4.47;;
27209;SDS011;14721;42.668;23.386;2022-08-16T10:47:59;8.57;;;3.72;;
27209;SDS011;14721;42.668;23.386;2022-08-16T10:50:25;6.57;;;3.80;;
27209;SDS011;14721;42.668;23.386;2022-08-16T10:52:56;5.75;;;4.03;;
27209;SDS011;14721;42.668;23.386;2022-08-16T10:55:22;6.05;;;3.75;;
27209;SDS011;14721;42.668;23.386;2022-08-16T10:57:52;8.07;;;4.05;;
27209;SDS011;14721;42.668;23.386;2022-08-16T11:00:21;6.78;;;3.75;;
27209;SDS011;14721;42.668;23.386;2022-08-16T11:02:52;5.15;;;3.75;;
27209;SDS011;14721;42.668;23.386;2022-08-16T11:05:18;5.90;;;3.90;;
27209;SDS011;14721;42.668;23.386;2022-08-16T11:07:46;6.68;;;3.80;;
27209;SDS011;14721;42.668;23.386;2022-08-16T11:10:15;6.20;;;4.38;;
27209;SDS011;14721;42.668;23.386;2022-08-16T11:12:43;10.10;;;4.97;;
27209;SDS011;14721;42.668;23.386;2022-08-16T11:15:14;4.97;;;3.90;;
27209;SDS011;14721;42.668;23.386;2022-08-16T11:17:41;5.18;;;3.50;;
27209;SDS011;14721;42.668;23.386;2022-08-16T11:20:08;6.68;;;3.65;;
27209;SDS011;14721;42.668;23.386;2022-08-16T11:22:47;7.60;;;4.50;;
27209;SDS011;14721;42.668;23.386;2022-08-16T11:25:15;5.50;;;3.80;;
27209;SDS011;14721;42.668;23.386;2022-08-16T11:27:43;5.78;;;3.60;;
27209;SDS011;14721;42.668;23.386;2022-08-16T11:30:10;6.30;;;3.50;;
27209;SDS011;14721;42.668;23.386;2022-08-16T11:32:38;6.15;;;4.32;;
27209;SDS011;14721;42.668;23.386;2022-08-16T11:35:06;5.70;;;3.50;;
27209;SDS011;14721;42.668;23.386;2022-08-16T11:37:34;6.25;;;4.18;;
27209;SDS011;14721;42.668;23.386;2022-08-16T11:40:03;5.82;;;3.50;;
27209;SDS011;14721;42.668;23.386;2022-08-16T11:42:30;5.20;;;4.22;;
27209;SDS011;14721;42.668;23.386;2022-08-16T11:44:56;5.78;;;3.92;;
27209;SDS011;14721;42.668;23.386;2022-08-16T11:47:21;7.38;;;4.32;;
27209;SDS011;14721;42.668;23.386;2022-08-16T11:49:47;5.75;;;4.18;;
27209;SDS011;14721;42.668;23.386;2022-08-16T11:52:13;7.07;;;3.85;;
27209;SDS011;14721;42.668;23.386;2022-08-16T11:54:41;11.45;;;3.90;;
27209;SDS011;14721;42.668;23.386;2022-08-16T11:57:07;7.75;;;3.55;;
27209;SDS011;14721;42.668;23.386;2022-08-16T11:59:33;7.30;;;4.07;;
27209;SDS011;14721;42.668;23.386;2022-08-16T12:01:58;6.15;;;3.80;;
27209;SDS011;14721;42.668;23.386;2022-08-16T12:04:24;5.60;;;2.80;;
27209;SDS011;14721;42.668;23.386;2022-08-16T12:06:50;5.72;;;3.42;;
27209;SDS011;14721;42.668;23.386;2022-08-16T12:09:17;7.65;;;3.45;;
27209;SDS011;14721;42.668;23.386;2022-08-16T12:11:43;6.47;;;3.47;;
27209;SDS011;14721;42.668;23.386;2022-08-16T12:14:09;4.97;;;3.30;;
27209;SDS011;14721;42.668;23.386;2022-08-16T12:16:35;3.85;;;2.97;;
27209;SDS011;14721;42.668;23.386;2022-08-16T12:19:03;5.50;;;3.55;;
27209;SDS011;14721;42.668;23.386;2022-08-16T12:21:31;6.90;;;3.72;;
27209;SDS011;14721;42.668;23.386;2022-08-16T12:23:57;4.40;;;2.92;;
27209;SDS011;14721;42.668;23.386;2022-08-16T12:26:23;5.30;;;3.58;;
27209;SDS011;14721;42.668;23.386;2022-08-16T12:28:51;6.50;;;3.85;;
27209;SDS011;14721;42.668;23.386;2022-08-16T12:31:18;8.00;;;4.63;;
27209;SDS011;14721;42.668;23.386;2022-08-16T12:33:44;6.22;;;3.78;;
27209;SDS011;14721;42.668;23.386;2022-08-16T12:36:10;4.55;;;3.33;;
27209;SDS011;14721;42.668;23.386;2022-08-16T12:38:37;7.10;;;3.50;;
27209;SDS011;14721;42.668;23.386;2022-08-16T12:41:05;5.45;;;3.47;;
27209;SDS011;14721;42.668;23.386;2022-08-16T12:43:30;7.93;;;3.95;;
27209;SDS011;14721;42.668;23.386;2022-08-16T12:45:56;8.52;;;4.30;;
27209;SDS011;14721;42.668;23.386;2022-08-16T12:48:26;9.25;;;3.65;;
27209;SDS011;14721;42.668;23.386;2022-08-16T12:51:14;5.80;;;3.97;;
27209;SDS011;14721;42.668;23.386;2022-08-16T12:53:41;6.53;;;4.20;;
27209;SDS011;14721;42.668;23.386;2022-08-16T12:56:08;9.43;;;5.20;;
27209;SDS011;14721;42.668;23.386;2022-08-16T12:58:36;9.05;;;6.03;;
27209;SDS011;14721;42.668;23.386;2022-08-16T13:01:03;8.98;;;4.93;;
27209;SDS011;14721;42.668;23.386;2022-08-16T13:03:29;8.07;;;4.25;;
27209;SDS011;14721;42.668;23.386;2022-08-16T13:05:56;6.20;;;4.35;;
27209;SDS011;14721;42.668;23.386;2022-08-16T13:08:23;7.25;;;4.72;;
27209;SDS011;14721;42.668;23.386;2022-08-16T13:10:48;8.23;;;4.35;;
27209;SDS011;14721;42.668;23.386;2022-08-16T13:13:15;6.60;;;4.53;;
27209;SDS011;14721;42.668;23.386;2022-08-16T13:15:54;4.68;;;3.42;;
27209;SDS011;14721;42.668;23.386;2022-08-16T13:18:25;6.95;;;4.10;;
27209;SDS011;14721;42.668;23.386;2022-08-16T13:20:53;6.95;;;4.13;;
27209;SDS011;14721;42.668;23.386;2022-08-16T13:23:30;5.53;;;3.67;;
27209;SDS011;14721;42.668;23.386;2022-08-16T13:25:56;6.30;;;3.90;;
27209;SDS011;14721;42.668;23.386;2022-08-16T13:28:22;6.38;;;3.85;;
27209;SDS011;14721;42.668;23.386;2022-08-16T13:30:49;7.07;;;3.58;;
27209;SDS011;14721;42.668;23.386;2022-08-16T13:33:18;8.57;;;3.53;;
27209;SDS011;14721;42.668;23.386;2022-08-16T13:35:50;8.02;;;3.78;;
27209;SDS011;14721;42.668;23.386;2022-08-16T13:38:17;7.95;;;4.47;;
27209;SDS011;14721;42.668;23.386;2022-08-16T13:40:43;6.30;;;3.75;;
27209;SDS011;14721;42.668;23.386;2022-08-16T13:43:09;5.38;;;3.70;;
27209;SDS011;14721;42.668;23.386;2022-08-16T13:45:36;5.50;;;3.03;;
27209;SDS011;14721;42.668;23.386;2022-08-16T13:48:04;5.65;;;3.13;;
27209;SDS011;14721;42.668;23.386;2022-08-16T13:50:31;5.40;;;3.20;;
27209;SDS011;14721;42.668;23.386;2022-08-16T13:52:58;7.47;;;3.33;;
27209;SDS011;14721;42.668;23.386;2022-08-16T13:55:26;7.55;;;2.55;;
27209;SDS011;14721;42.668;23.386;2022-08-16T13:57:52;5.25;;;2.75;;
27209;SDS011;14721;42.668;23.386;2022-08-16T14:00:18;5.53;;;2.67;;
27209;SDS011;14721;42.668;23.386;2022-08-16T14:02:44;5.30;;;3.00;;
27209;SDS011;14721;42.668;23.386;2022-08-16T14:05:12;7.35;;;3.17;;
27209;SDS011;14721;42.668;23.386;2022-08-16T14:07:40;6.00;;;3.55;;
27209;SDS011;14721;42.668;23.386;2022-08-16T14:10:12;4.45;;;2.95;;
27209;SDS011;14721;42.668;23.386;2022-08-16T14:12:40;4.45;;;3.05;;
27209;SDS011;14721;42.668;23.386;2022-08-16T14:17:39;6.90;;;2.65;;
27209;SDS011;14721;42.668;23.386;2022-08-16T14:20:05;5.85;;;2.92;;
27209;SDS011;14721;42.668;23.386;2022-08-16T14:22:34;6.00;;;2.70;;
27209;SDS011;14721;42.668;23.386;2022-08-16T14:25:05;5.03;;;2.50;;
27209;SDS011;14721;42.668;23.386;2022-08-16T14:27:34;5.53;;;2.75;;
27209;SDS011;14721;42.668;23.386;2022-08-16T14:30:02;6.07;;;2.50;;
27209;SDS011;14721;42.668;23.386;2022-08-16T14:32:30;4.90;;;2.97;;
27209;SDS011;14721;42.668;23.386;2022-08-16T14:34:57;33.08;;;4.95;;
27209;SDS011;14721;42.668;23.386;2022-08-16T14:37:25;5.35;;;2.65;;
27209;SDS011;14721;42.668;23.386;2022-08-16T14:39:51;4.15;;;2.42;;
27209;SDS011;14721;42.668;23.386;2022-08-16T14:42:19;4.00;;;2.30;;
27209;SDS011;14721;42.668;23.386;2022-08-16T14:44:48;4.32;;;2.90;;